sensor_id;sensor_type;location;lat;lon;timestamp;pressure;altitude;pressure_sealevel;temperature;humidity
59787;BME280;45672;51.612;5.536;2023-04-04T00:01:34;102777.41;;;2.66;69.99
59787;BME280;45672;51.612;5.536;2023-04-04T00:03:59;102780.22;;;2.60;71.66
59787;BME280;45672;51.612;5.536;2023-04-04T00:06:25;102779.31;;;2.61;68.84
59787;BME280;45672;51.612;5.536;2023-04-04T00:08:50;102777.19;;;2.47;70.03
59787;BME280;45672;51.612;5.536;2023-04-04T00:11:15;102789.75;;;2.39;70.33
59787;BME280;45672;51.612;5.536;2023-04-04T00:13:41;102799.34;;;2.40;73.08
59787;BME280;45672;51.612;5.536;2023-04-04T00:16:06;102797.59;;;2.40;70.60
59787;BME280;45672;51.612;5.536;2023-04-04T00:18:31;102791.56;;;2.37;69.74
59787;BME280;45672;51.612;5.536;2023-04-04T00:20:57;102789.91;;;2.34;70.40
59787;BME280;45672;51.612;5.536;2023-04-04T00:23:23;102786.47;;;2.32;70.83
59787;BME280;45672;51.612;5.536;2023-04-04T00:25:50;102790.06;;;2.30;72.59
59787;BME280;45672;51.612;5.536;2023-04-04T00:28:19;102778.84;;;2.24;70.80
59787;BME280;45672;51.612;5.536;2023-04-04T00:30:45;102787.59;;;2.25;70.42
59787;BME280;45672;51.612;5.536;2023-04-04T00:33:11;102788.63;;;2.21;70.12
59787;BME280;45672;51.612;5.536;2023-04-04T00:35:36;102786.00;;;2.21;69.71
59787;BME280;45672;51.612;5.536;2023-04-04T00:38:02;102787.16;;;2.12;70.32
59787;BME280;45672;51.612;5.536;2023-04-04T00:40:27;102794.03;;;2.16;73.71
59787;BME280;45672;51.612;5.536;2023-04-04T00:42:53;102790.44;;;2.19;71.59
59787;BME280;45672;51.612;5.536;2023-04-04T00:45:18;102784.31;;;2.18;71.04
59787;BME280;45672;51.612;5.536;2023-04-04T00:47:44;102787.13;;;2.14;70.42
59787;BME280;45672;51.612;5.536;2023-04-04T00:50:10;102789.78;;;2.12;70.47
59787;BME280;45672;51.612;5.536;2023-04-04T00:52:36;102783.72;;;2.10;70.49
59787;BME280;45672;51.612;5.536;2023-04-04T00:55:02;102785.56;;;2.08;70.83
59787;BME280;45672;51.612;5.536;2023-04-04T00:57:28;102786.50;;;2.05;72.74
59787;BME280;45672;51.612;5.536;2023-04-04T00:59:56;102781.25;;;2.05;72.12
59787;BME280;45672;51.612;5.536;2023-04-04T01:02:22;102784.00;;;2.02;71.58
59787;BME280;45672;51.612;5.536;2023-04-04T01:04:48;102789.25;;;2.02;73.76
59787;BME280;45672;51.612;5.536;2023-04-04T01:07:14;102787.56;;;2.00;75.36
59787;BME280;45672;51.612;5.536;2023-04-04T01:09:40;102783.94;;;2.04;73.34
59787;BME280;45672;51.612;5.536;2023-04-04T01:12:06;102776.06;;;2.04;72.51
59787;BME280;45672;51.612;5.536;2023-04-04T01:14:31;102777.97;;;1.99;72.57
59787;BME280;45672;51.612;5.536;2023-04-04T01:16:58;102772.72;;;1.99;73.13
59787;BME280;45672;51.612;5.536;2023-04-04T01:19:29;102759.69;;;1.96;73.51
59787;BME280;45672;51.612;5.536;2023-04-04T01:21:58;102768.47;;;1.96;73.05
59787;BME280;45672;51.612;5.536;2023-04-04T01:24:24;102754.50;;;1.94;73.32
59787;BME280;45672;51.612;5.536;2023-04-04T01:26:52;102755.34;;;1.95;73.34
59787;BME280;45672;51.612;5.536;2023-04-04T01:29:18;102771.09;;;1.96;73.94
59787;BME280;45672;51.612;5.536;2023-04-04T01:31:49;102769.34;;;1.95;74.88
59787;BME280;45672;51.612;5.536;2023-04-04T01:34:53;102767.69;;;1.93;73.57
59787;BME280;45672;51.612;5.536;2023-04-04T01:37:30;102763.28;;;1.93;71.54
59787;BME280;45672;51.612;5.536;2023-04-04T01:40:16;102752.16;;;1.86;73.75
59787;BME280;45672;51.612;5.536;2023-04-04T01:42:43;102758.25;;;1.87;73.89
59787;BME280;45672;51.612;5.536;2023-04-04T01:45:09;102760.22;;;1.80;73.58
59787;BME280;45672;51.612;5.536;2023-04-04T01:47:41;102754.91;;;1.82;74.69
59787;BME280;45672;51.612;5.536;2023-04-04T01:50:08;102765.50;;;1.79;73.40
59787;BME280;45672;51.612;5.536;2023-04-04T01:52:34;102754.16;;;1.78;73.11
59787;BME280;45672;51.612;5.536;2023-04-04T01:55:00;102752.44;;;1.77;73.61
59787;BME280;45672;51.612;5.536;2023-04-04T01:57:26;102746.34;;;1.77;73.50
59787;BME280;45672;51.612;5.536;2023-04-04T01:59:51;102741.25;;;1.72;73.18
59787;BME280;45672;51.612;5.536;2023-04-04T02:02:17;102755.97;;;1.76;72.70
59787;BME280;45672;51.612;5.536;2023-04-04T02:04:42;102750.81;;;1.73;74.08
59787;BME280;45672;51.612;5.536;2023-04-04T02:07:08;102757.91;;;1.71;74.41
59787;BME280;45672;51.612;5.536;2023-04-04T02:09:33;102753.59;;;1.68;76.10
59787;BME280;45672;51.612;5.536;2023-04-04T02:11:59;102748.41;;;1.67;76.25
59787;BME280;45672;51.612;5.536;2023-04-04T02:14:25;102756.28;;;1.67;74.72
59787;BME280;45672;51.612;5.536;2023-04-04T02:16:50;102757.28;;;1.63;74.57
59787;BME280;45672;51.612;5.536;2023-04-04T02:19:15;102747.84;;;1.57;75.72
59787;BME280;45672;51.612;5.536;2023-04-04T02:21:41;102757.44;;;1.58;75.67
59787;BME280;45672;51.612;5.536;2023-04-04T02:24:06;102757.53;;;1.55;77.38
59787;BME280;45672;51.612;5.536;2023-04-04T02:26:32;102774.25;;;1.52;75.97
59787;BME280;45672;51.612;5.536;2023-04-04T02:28:57;102770.94;;;1.46;74.95
59787;BME280;45672;51.612;5.536;2023-04-04T02:31:22;102780.59;;;1.45;76.09
59787;BME280;45672;51.612;5.536;2023-04-04T02:33:48;102781.50;;;1.44;76.63
59787;BME280;45672;51.612;5.536;2023-04-04T02:36:13;102777.13;;;1.43;77.03
59787;BME280;45672;51.612;5.536;2023-04-04T02:38:38;102776.25;;;1.44;74.08
59787;BME280;45672;51.612;5.536;2023-04-04T02:41:04;102767.63;;;1.39;74.88
59787;BME280;45672;51.612;5.536;2023-04-04T02:43:29;102772.03;;;1.38;77.79
59787;BME280;45672;51.612;5.536;2023-04-04T02:45:54;102765.94;;;1.38;75.69
59787;BME280;45672;51.612;5.536;2023-04-04T02:48:20;102758.88;;;1.40;77.12
59787;BME280;45672;51.612;5.536;2023-04-04T02:50:45;102752.88;;;1.36;76.07
59787;BME280;45672;51.612;5.536;2023-04-04T02:53:11;102763.31;;;1.38;75.43
59787;BME280;45672;51.612;5.536;2023-04-04T02:55:37;102760.13;;;1.28;75.51
59787;BME280;45672;51.612;5.536;2023-04-04T02:58:02;102766.28;;;1.27;77.49
59787;BME280;45672;51.612;5.536;2023-04-04T03:00:28;102756.69;;;1.26;77.03
59787;BME280;45672;51.612;5.536;2023-04-04T03:02:54;102756.69;;;1.26;77.80
59787;BME280;45672;51.612;5.536;2023-04-04T03:05:19;102756.72;;;1.25;77.99
59787;BME280;45672;51.612;5.536;2023-04-04T03:07:45;102753.25;;;1.24;78.37
59787;BME280;45672;51.612;5.536;2023-04-04T03:10:10;102750.69;;;1.23;76.75
59787;BME280;45672;51.612;5.536;2023-04-04T03:12:36;102751.53;;;1.23;78.58
59787;BME280;45672;51.612;5.536;2023-04-04T03:15:02;102757.72;;;1.20;76.42
59787;BME280;45672;51.612;5.536;2023-04-04T03:17:28;102758.72;;;1.16;77.87
59787;BME280;45672;51.612;5.536;2023-04-04T03:19:54;102752.69;;;1.14;78.36
59787;BME280;45672;51.612;5.536;2023-04-04T03:22:19;102751.78;;;1.15;77.20
59787;BME280;45672;51.612;5.536;2023-04-04T03:24:45;102747.44;;;1.14;76.50
59787;BME280;45672;51.612;5.536;2023-04-04T03:27:10;102751.94;;;1.09;78.99
59787;BME280;45672;51.612;5.536;2023-04-04T03:29:35;102758.88;;;1.12;78.43
59787;BME280;45672;51.612;5.536;2023-04-04T03:32:01;102746.59;;;1.12;77.63
59787;BME280;45672;51.612;5.536;2023-04-04T03:34:27;102743.19;;;1.10;78.29
59787;BME280;45672;51.612;5.536;2023-04-04T03:36:52;102742.19;;;1.14;77.93
59787;BME280;45672;51.612;5.536;2023-04-04T03:39:18;102751.81;;;1.14;77.74
59787;BME280;45672;51.612;5.536;2023-04-04T03:41:43;102730.88;;;1.12;78.24
59787;BME280;45672;51.612;5.536;2023-04-04T03:44:08;102740.41;;;1.15;78.29
59787;BME280;45672;51.612;5.536;2023-04-04T03:46:34;102734.22;;;1.17;80.66
59787;BME280;45672;51.612;5.536;2023-04-04T03:48:59;102721.16;;;1.16;78.97
59787;BME280;45672;51.612;5.536;2023-04-04T03:51:25;102728.22;;;1.14;78.65
59787;BME280;45672;51.612;5.536;2023-04-04T03:53:52;102729.13;;;1.13;78.73
59787;BME280;45672;51.612;5.536;2023-04-04T03:56:17;102732.69;;;1.10;79.97
59787;BME280;45672;51.612;5.536;2023-04-04T03:58:43;102735.31;;;1.10;81.08
59787;BME280;45672;51.612;5.536;2023-04-04T04:01:09;102728.50;;;1.05;81.38
59787;BME280;45672;51.612;5.536;2023-04-04T04:03:35;102731.97;;;1.05;82.25
59787;BME280;45672;51.612;5.536;2023-04-04T04:06:01;102731.22;;;1.01;81.40
59787;BME280;45672;51.612;5.536;2023-04-04T04:08:26;102726.97;;;0.97;80.93
59787;BME280;45672;51.612;5.536;2023-04-04T04:10:52;102727.81;;;0.98;82.18
59787;BME280;45672;51.612;5.536;2023-04-04T04:13:18;102724.44;;;0.94;80.94
59787;BME280;45672;51.612;5.536;2023-04-04T04:15:43;102727.16;;;0.91;80.35
59787;BME280;45672;51.612;5.536;2023-04-04T04:18:09;102722.19;;;0.82;80.94
59787;BME280;45672;51.612;5.536;2023-04-04T04:20:34;102731.81;;;0.81;80.39
59787;BME280;45672;51.612;5.536;2023-04-04T04:22:59;102727.47;;;0.80;81.74
59787;BME280;45672;51.612;5.536;2023-04-04T04:25:25;102722.19;;;0.82;82.25
59787;BME280;45672;51.612;5.536;2023-04-04T04:27:54;102724.84;;;0.80;81.38
59787;BME280;45672;51.612;5.536;2023-04-04T04:30:19;102718.81;;;0.77;81.31
59787;BME280;45672;51.612;5.536;2023-04-04T04:32:44;102707.69;;;0.70;80.89
59787;BME280;45672;51.612;5.536;2023-04-04T04:35:10;102726.03;;;0.70;81.22
59787;BME280;45672;51.612;5.536;2023-04-04T04:37:35;102727.16;;;0.61;81.89
59787;BME280;45672;51.612;5.536;2023-04-04T04:40:01;102729.88;;;0.57;81.14
59787;BME280;45672;51.612;5.536;2023-04-04T04:42:26;102724.72;;;0.54;81.20
59787;BME280;45672;51.612;5.536;2023-04-04T04:44:51;102726.41;;;0.56;83.99
59787;BME280;45672;51.612;5.536;2023-04-04T04:47:17;102719.41;;;0.57;84.07
59787;BME280;45672;51.612;5.536;2023-04-04T04:49:42;102730.03;;;0.52;82.66
59787;BME280;45672;51.612;5.536;2023-04-04T04:52:10;102731.06;;;0.46;82.61
59787;BME280;45672;51.612;5.536;2023-04-04T04:54:35;102739.75;;;0.47;83.37
59787;BME280;45672;51.612;5.536;2023-04-04T04:57:01;102739.69;;;0.50;83.54
59787;BME280;45672;51.612;5.536;2023-04-04T04:59:26;102740.53;;;0.50;83.51
59787;BME280;45672;51.612;5.536;2023-04-04T05:01:52;102750.03;;;0.55;83.04
59787;BME280;45672;51.612;5.536;2023-04-04T05:04:17;102747.59;;;0.48;83.39
59787;BME280;45672;51.612;5.536;2023-04-04T05:06:42;102746.75;;;0.46;82.50
59787;BME280;45672;51.612;5.536;2023-04-04T05:09:07;102743.34;;;0.44;82.88
59787;BME280;45672;51.612;5.536;2023-04-04T05:11:33;102751.97;;;0.48;84.87
59787;BME280;45672;51.612;5.536;2023-04-04T05:13:58;102751.09;;;0.47;83.28
59787;BME280;45672;51.612;5.536;2023-04-04T05:16:24;102745.91;;;0.46;83.96
59787;BME280;45672;51.612;5.536;2023-04-04T05:18:49;102751.09;;;0.47;84.65
59787;BME280;45672;51.612;5.536;2023-04-04T05:21:15;102757.16;;;0.49;83.35
59787;BME280;45672;51.612;5.536;2023-04-04T05:23:40;102755.47;;;0.48;84.31
59787;BME280;45672;51.612;5.536;2023-04-04T05:26:05;102752.78;;;0.50;84.03
59787;BME280;45672;51.612;5.536;2023-04-04T05:28:31;102755.41;;;0.50;83.56
59787;BME280;45672;51.612;5.536;2023-04-04T05:30:56;102748.50;;;0.47;84.60
59787;BME280;45672;51.612;5.536;2023-04-04T05:33:22;102744.84;;;0.53;85.57
59787;BME280;45672;51.612;5.536;2023-04-04T05:35:47;102748.34;;;0.52;84.36
59787;BME280;45672;51.612;5.536;2023-04-04T05:38:13;102756.16;;;0.54;83.95
59787;BME280;45672;51.612;5.536;2023-04-04T05:40:38;102752.84;;;0.48;85.09
59787;BME280;45672;51.612;5.536;2023-04-04T05:43:04;102764.03;;;0.54;84.43
59787;BME280;45672;51.612;5.536;2023-04-04T05:45:30;102757.03;;;0.54;84.87
59787;BME280;45672;51.612;5.536;2023-04-04T05:47:55;102766.72;;;0.50;85.14
59787;BME280;45672;51.612;5.536;2023-04-04T05:50:21;102776.31;;;0.51;85.14
59787;BME280;45672;51.612;5.536;2023-04-04T05:52:46;102766.81;;;0.47;85.12
59787;BME280;45672;51.612;5.536;2023-04-04T05:55:11;102762.47;;;0.46;84.73
59787;BME280;45672;51.612;5.536;2023-04-04T05:57:37;102764.91;;;0.52;85.79
59787;BME280;45672;51.612;5.536;2023-04-04T06:00:03;102764.91;;;0.54;85.84
59787;BME280;45672;51.612;5.536;2023-04-04T06:02:30;102765.56;;;0.61;86.34
59787;BME280;45672;51.612;5.536;2023-04-04T06:04:56;102763.66;;;0.67;86.21
59787;BME280;45672;51.612;5.536;2023-04-04T06:07:21;102769.53;;;0.76;86.29
59787;BME280;45672;51.612;5.536;2023-04-04T06:09:46;102762.34;;;0.82;85.73
59787;BME280;45672;51.612;5.536;2023-04-04T06:12:12;102763.13;;;0.86;84.97
59787;BME280;45672;51.612;5.536;2023-04-04T06:14:37;102768.13;;;0.94;83.96
59787;BME280;45672;51.612;5.536;2023-04-04T06:17:03;102773.06;;;1.05;84.28
59787;BME280;45672;51.612;5.536;2023-04-04T06:19:28;102783.03;;;1.22;83.68
59787;BME280;45672;51.612;5.536;2023-04-04T06:21:54;102778.28;;;1.34;82.89
59787;BME280;45672;51.612;5.536;2023-04-04T06:24:19;102769.00;;;1.52;82.89
59787;BME280;45672;51.612;5.536;2023-04-04T06:26:44;102778.84;;;1.72;82.13
59787;BME280;45672;51.612;5.536;2023-04-04T06:29:10;102766.84;;;1.92;80.35
59787;BME280;45672;51.612;5.536;2023-04-04T06:31:36;102781.59;;;2.21;78.85
59787;BME280;45672;51.612;5.536;2023-04-04T06:34:01;102780.47;;;2.54;77.32
59787;BME280;45672;51.612;5.536;2023-04-04T06:36:27;102785.41;;;3.10;75.51
59787;BME280;45672;51.612;5.536;2023-04-04T06:38:52;102786.78;;;3.87;72.92
59787;BME280;45672;51.612;5.536;2023-04-04T06:41:18;102778.19;;;4.64;69.58
59787;BME280;45672;51.612;5.536;2023-04-04T06:43:43;102777.41;;;5.58;66.17
59787;BME280;45672;51.612;5.536;2023-04-04T06:46:11;102785.53;;;6.42;62.70
59787;BME280;45672;51.612;5.536;2023-04-04T06:48:37;102790.72;;;7.11;58.47
59787;BME280;45672;51.612;5.536;2023-04-04T06:51:06;102797.06;;;7.40;56.81
59787;BME280;45672;51.612;5.536;2023-04-04T06:53:31;102795.94;;;8.06;54.17
59787;BME280;45672;51.612;5.536;2023-04-04T06:55:57;102780.50;;;8.58;52.14
59787;BME280;45672;51.612;5.536;2023-04-04T06:58:23;102790.69;;;9.22;50.36
59787;BME280;45672;51.612;5.536;2023-04-04T07:00:48;102791.59;;;9.35;49.51
59787;BME280;45672;51.612;5.536;2023-04-04T07:03:14;102802.81;;;10.08;49.60
59787;BME280;45672;51.612;5.536;2023-04-04T07:05:39;102798.66;;;11.07;46.40
59787;BME280;45672;51.612;5.536;2023-04-04T07:08:05;102805.59;;;11.46;43.96
59787;BME280;45672;51.612;5.536;2023-04-04T07:10:31;102801.97;;;11.10;43.44
59787;BME280;45672;51.612;5.536;2023-04-04T07:12:56;102804.81;;;11.57;44.52
59787;BME280;45672;51.612;5.536;2023-04-04T07:15:21;102800.13;;;12.43;41.47
59787;BME280;45672;51.612;5.536;2023-04-04T07:17:47;102803.91;;;12.97;39.20
59787;BME280;45672;51.612;5.536;2023-04-04T07:20:12;102804.34;;;13.80;38.97
59787;BME280;45672;51.612;5.536;2023-04-04T07:22:38;102807.75;;;14.45;36.67
59787;BME280;45672;51.612;5.536;2023-04-04T07:25:04;102800.78;;;14.75;35.73
59787;BME280;45672;51.612;5.536;2023-04-04T07:27:30;102799.66;;;15.28;35.42
59787;BME280;45672;51.612;5.536;2023-04-04T07:29:56;102793.22;;;15.80;34.78
59787;BME280;45672;51.612;5.536;2023-04-04T07:32:21;102797.06;;;16.44;32.91
59787;BME280;45672;51.612;5.536;2023-04-04T07:34:47;102797.88;;;17.02;31.91
59787;BME280;45672;51.612;5.536;2023-04-04T07:37:13;102797.94;;;17.56;30.32
59787;BME280;45672;51.612;5.536;2023-04-04T07:39:39;102800.66;;;17.10;30.68
59787;BME280;45672;51.612;5.536;2023-04-04T07:42:04;102792.19;;;16.77;30.49
59787;BME280;45672;51.612;5.536;2023-04-04T07:44:30;102792.28;;;16.48;30.88
59787;BME280;45672;51.612;5.536;2023-04-04T07:46:55;102800.34;;;16.48;30.20
59787;BME280;45672;51.612;5.536;2023-04-04T07:49:21;102799.13;;;16.13;30.48
59787;BME280;45672;51.612;5.536;2023-04-04T07:51:46;102801.66;;;16.24;29.55
59787;BME280;45672;51.612;5.536;2023-04-04T07:54:13;102797.19;;;16.05;30.01
59787;BME280;45672;51.612;5.536;2023-04-04T07:56:38;102797.72;;;16.09;30.01
59787;BME280;45672;51.612;5.536;2023-04-04T07:59:03;102790.69;;;15.98;29.94
59787;BME280;45672;51.612;5.536;2023-04-04T08:01:29;102797.72;;;15.69;29.90
59787;BME280;45672;51.612;5.536;2023-04-04T08:03:55;102798.28;;;15.54;30.63
59787;BME280;45672;51.612;5.536;2023-04-04T08:06:20;102805.25;;;15.95;30.46
59787;BME280;45672;51.612;5.536;2023-04-04T08:08:46;102801.00;;;16.60;29.28
59787;BME280;45672;51.612;5.536;2023-04-04T08:11:12;102808.31;;;17.33;28.22
59787;BME280;45672;51.612;5.536;2023-04-04T08:13:37;102804.72;;;17.78;27.76
59787;BME280;45672;51.612;5.536;2023-04-04T08:16:03;102809.69;;;18.09;26.73
59787;BME280;45672;51.612;5.536;2023-04-04T08:18:29;102814.16;;;18.44;26.16
59787;BME280;45672;51.612;5.536;2023-04-04T08:20:54;102813.28;;;18.70;26.73
59787;BME280;45672;51.612;5.536;2023-04-04T08:23:19;102813.31;;;18.78;25.37
59787;BME280;45672;51.612;5.536;2023-04-04T08:25:45;102813.84;;;19.17;24.53
59787;BME280;45672;51.612;5.536;2023-04-04T08:28:11;102817.38;;;19.17;24.06
59787;BME280;45672;51.612;5.536;2023-04-04T08:30:36;102806.50;;;19.43;24.03
59787;BME280;45672;51.612;5.536;2023-04-04T08:33:02;102799.75;;;19.64;23.90
59787;BME280;45672;51.612;5.536;2023-04-04T08:35:27;102795.72;;;20.34;23.88
59787;BME280;45672;51.612;5.536;2023-04-04T08:37:52;102801.47;;;21.18;21.49
59787;BME280;45672;51.612;5.536;2023-04-04T08:40:18;102802.50;;;20.13;22.81
59787;BME280;45672;51.612;5.536;2023-04-04T08:42:43;102790.97;;;20.28;22.62
59787;BME280;45672;51.612;5.536;2023-04-04T08:45:11;102792.72;;;20.04;23.43
59787;BME280;45672;51.612;5.536;2023-04-04T08:47:37;102786.72;;;20.42;21.97
59787;BME280;45672;51.612;5.536;2023-04-04T08:50:04;102793.63;;;20.53;21.83
59787;BME280;45672;51.612;5.536;2023-04-04T08:52:31;102795.66;;;20.50;21.07
59787;BME280;45672;51.612;5.536;2023-04-04T08:54:57;102791.19;;;21.14;20.63
59787;BME280;45672;51.612;5.536;2023-04-04T08:57:23;102789.09;;;21.47;19.48
59787;BME280;45672;51.612;5.536;2023-04-04T08:59:48;102788.81;;;20.79;20.61
59787;BME280;45672;51.612;5.536;2023-04-04T09:02:22;102785.03;;;20.41;22.01
59787;BME280;45672;51.612;5.536;2023-04-04T09:04:48;102790.75;;;20.54;20.00
59787;BME280;45672;51.612;5.536;2023-04-04T09:07:15;102790.84;;;20.13;20.70
59787;BME280;45672;51.612;5.536;2023-04-04T09:09:43;102802.41;;;21.03;20.86
59787;BME280;45672;51.612;5.536;2023-04-04T09:12:12;102801.88;;;23.13;20.08
59787;BME280;45672;51.612;5.536;2023-04-04T09:14:39;102804.91;;;24.46;17.67
59787;BME280;45672;51.612;5.536;2023-04-04T09:17:06;102799.75;;;23.95;18.00
59787;BME280;45672;51.612;5.536;2023-04-04T09:19:32;102805.41;;;23.71;17.77
59787;BME280;45672;51.612;5.536;2023-04-04T09:21:58;102794.19;;;24.03;18.87
59787;BME280;45672;51.612;5.536;2023-04-04T09:24:23;102797.44;;;23.70;18.31
59787;BME280;45672;51.612;5.536;2023-04-04T09:26:52;102794.59;;;23.78;18.54
59787;BME280;45672;51.612;5.536;2023-04-04T09:29:19;102788.69;;;24.59;16.91
59787;BME280;45672;51.612;5.536;2023-04-04T09:31:45;102793.03;;;23.90;17.01
59787;BME280;45672;51.612;5.536;2023-04-04T09:34:12;102792.03;;;23.48;17.37
59787;BME280;45672;51.612;5.536;2023-04-04T09:36:39;102798.19;;;23.64;17.69
59787;BME280;45672;51.612;5.536;2023-04-04T09:39:05;102796.25;;;23.79;17.06
59787;BME280;45672;51.612;5.536;2023-04-04T09:41:31;102784.63;;;24.42;16.87
59787;BME280;45672;51.612;5.536;2023-04-04T09:43:56;102790.50;;;25.56;16.49
59787;BME280;45672;51.612;5.536;2023-04-04T09:46:22;102782.03;;;26.51;15.65
59787;BME280;45672;51.612;5.536;2023-04-04T09:48:48;102784.97;;;25.29;16.48
59787;BME280;45672;51.612;5.536;2023-04-04T09:51:17;102789.78;;;24.65;16.00
59787;BME280;45672;51.612;5.536;2023-04-04T09:53:46;102787.94;;;23.37;17.90
59787;BME280;45672;51.612;5.536;2023-04-04T09:56:12;102778.75;;;23.38;17.30
59787;BME280;45672;51.612;5.536;2023-04-04T09:58:37;102776.34;;;23.29;18.21
59787;BME280;45672;51.612;5.536;2023-04-04T10:01:07;102790.09;;;24.14;17.74
59787;BME280;45672;51.612;5.536;2023-04-04T10:03:35;102779.78;;;23.16;17.90
59787;BME280;45672;51.612;5.536;2023-04-04T10:06:03;102785.81;;;23.54;16.26
59787;BME280;45672;51.612;5.536;2023-04-04T10:08:29;102783.69;;;22.98;17.89
59787;BME280;45672;51.612;5.536;2023-04-04T10:11:04;102784.09;;;22.95;18.78
59787;BME280;45672;51.612;5.536;2023-04-04T10:13:33;102776.75;;;22.44;17.50
59787;BME280;45672;51.612;5.536;2023-04-04T10:16:01;102779.50;;;22.96;17.75
59787;BME280;45672;51.612;5.536;2023-04-04T10:18:29;102762.25;;;23.03;17.10
59787;BME280;45672;51.612;5.536;2023-04-04T10:20:56;102773.84;;;21.00;19.27
59787;BME280;45672;51.612;5.536;2023-04-04T10:23:23;102767.00;;;18.49;22.14
59787;BME280;45672;51.612;5.536;2023-04-04T10:25:51;102760.44;;;16.91;23.96
59787;BME280;45672;51.612;5.536;2023-04-04T10:28:17;102764.13;;;15.95;24.51
59787;BME280;45672;51.612;5.536;2023-04-04T10:30:48;102751.91;;;15.22;26.82
59787;BME280;45672;51.612;5.536;2023-04-04T10:33:26;102755.47;;;14.41;26.46
59787;BME280;45672;51.612;5.536;2023-04-04T10:35:57;102757.09;;;13.37;28.79
59787;BME280;45672;51.612;5.536;2023-04-04T10:38:27;102754.88;;;12.64;29.39
59787;BME280;45672;51.612;5.536;2023-04-04T10:40:55;102753.16;;;12.29;30.52
59787;BME280;45672;51.612;5.536;2023-04-04T10:43:24;102752.78;;;12.11;30.21
59787;BME280;45672;51.612;5.536;2023-04-04T10:45:53;102744.31;;;11.93;30.58
59787;BME280;45672;51.612;5.536;2023-04-04T10:48:20;102738.41;;;12.01;31.99
59787;BME280;45672;51.612;5.536;2023-04-04T10:50:47;102735.06;;;12.10;30.74
59787;BME280;45672;51.612;5.536;2023-04-04T10:53:13;102743.22;;;11.84;30.65
59787;BME280;45672;51.612;5.536;2023-04-04T10:55:38;102718.53;;;11.34;31.00
59787;BME280;45672;51.612;5.536;2023-04-04T10:58:06;102729.94;;;11.36;31.31
59787;BME280;45672;51.612;5.536;2023-04-04T11:00:48;102727.56;;;11.44;31.32
59787;BME280;45672;51.612;5.536;2023-04-04T11:03:13;102726.94;;;11.41;31.78
59787;BME280;45672;51.612;5.536;2023-04-04T11:05:39;102728.94;;;11.13;32.52
59787;BME280;45672;51.612;5.536;2023-04-04T11:08:09;102722.19;;;11.33;33.02
59787;BME280;45672;51.612;5.536;2023-04-04T11:10:42;102711.25;;;11.60;33.56
59787;BME280;45672;51.612;5.536;2023-04-04T11:13:33;102716.13;;;12.02;32.06
59787;BME280;45672;51.612;5.536;2023-04-04T11:16:11;102723.34;;;11.88;30.65
59787;BME280;45672;51.612;5.536;2023-04-04T11:21:15;102699.91;;;11.45;31.98
59787;BME280;45672;51.612;5.536;2023-04-04T11:26:34;102699.88;;;11.34;33.16
59787;BME280;45672;51.612;5.536;2023-04-04T11:29:03;102685.53;;;11.24;32.91
59787;BME280;45672;51.612;5.536;2023-04-04T11:33:59;102696.19;;;11.24;32.99
59787;BME280;45672;51.612;5.536;2023-04-04T11:39:14;102693.94;;;11.06;33.93
59787;BME280;45672;51.612;5.536;2023-04-04T11:41:46;102691.63;;;10.89;34.12
59787;BME280;45672;51.612;5.536;2023-04-04T11:44:13;102687.22;;;10.76;33.46
59787;BME280;45672;51.612;5.536;2023-04-04T11:46:39;102683.91;;;10.73;33.57
59787;BME280;45672;51.612;5.536;2023-04-04T11:49:05;102683.03;;;10.85;34.44
59787;BME280;45672;51.612;5.536;2023-04-04T11:51:31;102679.31;;;11.12;34.94
59787;BME280;45672;51.612;5.536;2023-04-04T11:53:56;102679.63;;;11.07;33.01
59787;BME280;45672;51.612;5.536;2023-04-04T11:56:22;102671.69;;;10.94;33.64
59787;BME280;45672;51.612;5.536;2023-04-04T11:58:49;102678.53;;;10.85;34.58
59787;BME280;45672;51.612;5.536;2023-04-04T12:01:15;102673.84;;;10.65;33.74
59787;BME280;45672;51.612;5.536;2023-04-04T12:03:40;102668.44;;;10.54;34.02
59787;BME280;45672;51.612;5.536;2023-04-04T12:06:06;102676.06;;;10.58;33.47
59787;BME280;45672;51.612;5.536;2023-04-04T12:08:31;102663.72;;;10.57;35.91
59787;BME280;45672;51.612;5.536;2023-04-04T12:11:03;102663.63;;;10.83;34.39
59787;BME280;45672;51.612;5.536;2023-04-04T12:13:31;102670.06;;;10.80;34.21
59787;BME280;45672;51.612;5.536;2023-04-04T12:15:57;102651.84;;;10.74;32.96
59787;BME280;45672;51.612;5.536;2023-04-04T12:18:22;102659.25;;;10.58;34.24
59787;BME280;45672;51.612;5.536;2023-04-04T12:20:51;102662.69;;;10.47;33.96
59787;BME280;45672;51.612;5.536;2023-04-04T12:23:17;102662.59;;;10.35;34.50
59787;BME280;45672;51.612;5.536;2023-04-04T12:25:42;102646.75;;;10.34;34.40
59787;BME280;45672;51.612;5.536;2023-04-04T12:28:14;102635.53;;;10.29;34.92
59787;BME280;45672;51.612;5.536;2023-04-04T12:30:39;102636.09;;;10.34;35.59
59787;BME280;45672;51.612;5.536;2023-04-04T12:33:05;102641.84;;;10.41;35.03
59787;BME280;45672;51.612;5.536;2023-04-04T12:35:31;102634.47;;;10.31;35.46
59787;BME280;45672;51.612;5.536;2023-04-04T12:38:03;102632.56;;;10.33;35.75
59787;BME280;45672;51.612;5.536;2023-04-04T12:40:32;102627.53;;;10.29;35.65
59787;BME280;45672;51.612;5.536;2023-04-04T12:43:02;102631.59;;;10.22;35.50
59787;BME280;45672;51.612;5.536;2023-04-04T12:45:27;102629.69;;;10.24;36.06
59787;BME280;45672;51.612;5.536;2023-04-04T12:47:54;102616.50;;;10.22;35.47
59787;BME280;45672;51.612;5.536;2023-04-04T12:50:24;102610.53;;;10.18;34.99
59787;BME280;45672;51.612;5.536;2023-04-04T12:52:52;102604.59;;;10.28;35.69
59787;BME280;45672;51.612;5.536;2023-04-04T12:55:20;102608.09;;;10.41;35.84
59787;BME280;45672;51.612;5.536;2023-04-04T12:57:47;102606.91;;;10.45;36.20
59787;BME280;45672;51.612;5.536;2023-04-04T13:00:12;102603.69;;;10.53;35.98
59787;BME280;45672;51.612;5.536;2023-04-04T13:02:39;102598.31;;;10.66;36.05